sensor_id;sensor_type;location;lat;lon;timestamp;P1;durP1;ratioP1;P2;durP2;ratioP2
51491;SDS011;37569;50.548;8.778;2024-03-08T00:01:46;25.7;;;16.3;;
51491;SDS011;37569;50.548;8.778;2024-03-08T00:06:46;25;;;16.2;;
51491;SDS011;37569;50.548;8.778;2024-03-08T00:11:46;25.3;;;15.6;;
51491;SDS011;37569;50.548;8.778;2024-03-08T00:16:46;25.6;;;16.1;;
51491;SDS011;37569;50.548;8.778;2024-03-08T00:21:46;25.3;;;16;;
51491;SDS011;37569;50.548;8.778;2024-03-08T00:26:46;26.7;;;16.4;;
51491;SDS011;37569;50.548;8.778;2024-03-08T00:31:47;24.6;;;16.2;;
51491;SDS011;37569;50.548;8.778;2024-03-08T00:36:47;25.1;;;16;;
51491;SDS011;37569;50.548;8.778;2024-03-08T00:41:47;25.6;;;16.3;;
51491;SDS011;37569;50.548;8.778;2024-03-08T00:46:47;26.3;;;16.8;;
51491;SDS011;37569;50.548;8.778;2024-03-08T00:51:47;24.3;;;16.2;;
51491;SDS011;37569;50.548;8.778;2024-03-08T00:56:48;23.9;;;15.8;;
51491;SDS011;37569;50.548;8.778;2024-03-08T01:01:48;26.2;;;16.8;;
51491;SDS011;37569;50.548;8.778;2024-03-08T01:06:48;27.8;;;17.4;;
51491;SDS011;37569;50.548;8.778;2024-03-08T01:11:48;26.7;;;16.3;;
51491;SDS011;37569;50.548;8.778;2024-03-08T01:16:48;26;;;16.3;;
51491;SDS011;37569;50.548;8.778;2024-03-08T01:21:48;26.1;;;16.4;;
51491;SDS011;37569;50.548;8.778;2024-03-08T01:26:49;26.3;;;16.2;;
51491;SDS011;37569;50.548;8.778;2024-03-08T01:31:49;28.2;;;16.7;;
51491;SDS011;37569;50.548;8.778;2024-03-08T01:36:49;25.9;;;16.6;;
51491;SDS011;37569;50.548;8.778;2024-03-08T01:41:49;29.5;;;17.4;;
51491;SDS011;37569;50.548;8.778;2024-03-08T01:46:49;28.6;;;16.6;;
51491;SDS011;37569;50.548;8.778;2024-03-08T01:51:49;28.8;;;17.2;;
51491;SDS011;37569;50.548;8.778;2024-03-08T01:56:49;29;;;17;;
51491;SDS011;37569;50.548;8.778;2024-03-08T02:01:50;27.2;;;16.9;;
51491;SDS011;37569;50.548;8.778;2024-03-08T02:06:50;31.4;;;17.4;;
51491;SDS011;37569;50.548;8.778;2024-03-08T02:11:50;28.6;;;17.4;;
51491;SDS011;37569;50.548;8.778;2024-03-08T02:16:50;26.9;;;17.4;;
51491;SDS011;37569;50.548;8.778;2024-03-08T02:21:50;27.4;;;18.3;;
51491;SDS011;37569;50.548;8.778;2024-03-08T02:26:50;27.4;;;17.1;;
51491;SDS011;37569;50.548;8.778;2024-03-08T02:31:51;27.7;;;16.9;;
51491;SDS011;37569;50.548;8.778;2024-03-08T02:36:51;32;;;18.7;;
51491;SDS011;37569;50.548;8.778;2024-03-08T02:41:51;30.5;;;17.6;;
51491;SDS011;37569;50.548;8.778;2024-03-08T02:46:51;29;;;18.4;;
51491;SDS011;37569;50.548;8.778;2024-03-08T02:51:51;30.1;;;18.6;;
51491;SDS011;37569;50.548;8.778;2024-03-08T02:56:51;31.9;;;18.4;;
51491;SDS011;37569;50.548;8.778;2024-03-08T03:01:51;31.9;;;18.7;;
51491;SDS011;37569;50.548;8.778;2024-03-08T03:06:51;29.6;;;18.1;;
51491;SDS011;37569;50.548;8.778;2024-03-08T03:11:52;30.7;;;17.8;;
51491;SDS011;37569;50.548;8.778;2024-03-08T03:16:52;28.7;;;17.8;;
51491;SDS011;37569;50.548;8.778;2024-03-08T03:21:52;29.8;;;17.8;;
51491;SDS011;37569;50.548;8.778;2024-03-08T03:26:52;31.2;;;18.2;;
51491;SDS011;37569;50.548;8.778;2024-03-08T03:31:52;30.5;;;18.4;;
51491;SDS011;37569;50.548;8.778;2024-03-08T03:36:52;29.2;;;18;;
51491;SDS011;37569;50.548;8.778;2024-03-08T03:41:52;27.1;;;17.2;;
51491;SDS011;37569;50.548;8.778;2024-03-08T03:46:53;30.9;;;18.7;;
51491;SDS011;37569;50.548;8.778;2024-03-08T03:51:53;30.5;;;18;;
51491;SDS011;37569;50.548;8.778;2024-03-08T03:56:53;29.5;;;17.6;;
51491;SDS011;37569;50.548;8.778;2024-03-08T04:01:53;31;;;18.5;;
51491;SDS011;37569;50.548;8.778;2024-03-08T04:06:53;30.6;;;18.5;;
51491;SDS011;37569;50.548;8.778;2024-03-08T04:11:53;30.7;;;19;;
51491;SDS011;37569;50.548;8.778;2024-03-08T04:16:53;30.2;;;17.8;;
51491;SDS011;37569;50.548;8.778;2024-03-08T04:21:53;32.4;;;18.8;;
51491;SDS011;37569;50.548;8.778;2024-03-08T04:26:54;30.5;;;17.8;;
51491;SDS011;37569;50.548;8.778;2024-03-08T04:31:54;31.4;;;18.1;;
51491;SDS011;37569;50.548;8.778;2024-03-08T04:36:54;31.6;;;18.4;;
51491;SDS011;37569;50.548;8.778;2024-03-08T04:41:54;31.1;;;18.8;;
51491;SDS011;37569;50.548;8.778;2024-03-08T04:46:54;30;;;17.9;;
51491;SDS011;37569;50.548;8.778;2024-03-08T04:51:54;31.9;;;18.6;;
51491;SDS011;37569;50.548;8.778;2024-03-08T04:56:54;33.1;;;17.9;;
51491;SDS011;37569;50.548;8.778;2024-03-08T05:01:54;29.7;;;18.4;;
51491;SDS011;37569;50.548;8.778;2024-03-08T05:06:55;30.5;;;19.2;;
51491;SDS011;37569;50.548;8.778;2024-03-08T05:11:55;33.7;;;19.3;;
51491;SDS011;37569;50.548;8.778;2024-03-08T05:16:55;31.5;;;17.9;;
51491;SDS011;37569;50.548;8.778;2024-03-08T05:21:55;32;;;19.1;;
51491;SDS011;37569;50.548;8.778;2024-03-08T05:26:55;35.5;;;19.6;;
51491;SDS011;37569;50.548;8.778;2024-03-08T05:31:55;35.1;;;19.4;;
51491;SDS011;37569;50.548;8.778;2024-03-08T05:36:55;34.3;;;19.7;;
51491;SDS011;37569;50.548;8.778;2024-03-08T05:41:55;34.2;;;20.8;;
51491;SDS011;37569;50.548;8.778;2024-03-08T05:46:56;33.3;;;19.3;;
51491;SDS011;37569;50.548;8.778;2024-03-08T05:51:56;35.8;;;18.9;;
51491;SDS011;37569;50.548;8.778;2024-03-08T05:56:56;33.4;;;18.8;;
51491;SDS011;37569;50.548;8.778;2024-03-08T06:01:56;37.9;;;20.9;;
51491;SDS011;37569;50.548;8.778;2024-03-08T06:06:56;34.6;;;20.1;;
51491;SDS011;37569;50.548;8.778;2024-03-08T06:11:56;32.4;;;19.2;;
51491;SDS011;37569;50.548;8.778;2024-03-08T06:16:56;33.9;;;19.2;;
51491;SDS011;37569;50.548;8.778;2024-03-08T06:21:57;32.1;;;19.4;;
51491;SDS011;37569;50.548;8.778;2024-03-08T06:26:57;27.1;;;17.4;;
51491;SDS011;37569;50.548;8.778;2024-03-08T06:31:57;32.7;;;20.6;;
51491;SDS011;37569;50.548;8.778;2024-03-08T06:36:57;28;;;18.3;;
51491;SDS011;37569;50.548;8.778;2024-03-08T06:41:58;26.8;;;18.1;;
51491;SDS011;37569;50.548;8.778;2024-03-08T06:46:58;25.1;;;16.7;;
51491;SDS011;37569;50.548;8.778;2024-03-08T06:51:58;26.2;;;17.2;;
51491;SDS011;37569;50.548;8.778;2024-03-08T06:56:59;23.6;;;16.1;;
51491;SDS011;37569;50.548;8.778;2024-03-08T07:01:59;23.7;;;16;;
51491;SDS011;37569;50.548;8.778;2024-03-08T07:06:59;23.7;;;15.7;;
51491;SDS011;37569;50.548;8.778;2024-03-08T07:12:00;29.8;;;22.1;;
51491;SDS011;37569;50.548;8.778;2024-03-08T07:17:00;24.8;;;16.6;;
51491;SDS011;37569;50.548;8.778;2024-03-08T07:22:01;22.3;;;15.9;;
51491;SDS011;37569;50.548;8.778;2024-03-08T07:27:01;21.5;;;15.1;;
51491;SDS011;37569;50.548;8.778;2024-03-08T07:32:01;35.1;;;21.3;;
51491;SDS011;37569;50.548;8.778;2024-03-08T07:37:02;26.7;;;17.3;;
51491;SDS011;37569;50.548;8.778;2024-03-08T07:42:02;23.8;;;15.9;;
51491;SDS011;37569;50.548;8.778;2024-03-08T07:47:02;23.7;;;16.3;;
51491;SDS011;37569;50.548;8.778;2024-03-08T07:52:03;24.4;;;15.9;;
51491;SDS011;37569;50.548;8.778;2024-03-08T07:57:03;25.3;;;15.8;;
51491;SDS011;37569;50.548;8.778;2024-03-08T08:02:03;23;;;15.1;;
51491;SDS011;37569;50.548;8.778;2024-03-08T08:07:04;23.2;;;16.6;;
51491;SDS011;37569;50.548;8.778;2024-03-08T08:12:04;20.1;;;14.3;;
51491;SDS011;37569;50.548;8.778;2024-03-08T08:17:04;22;;;15.2;;
51491;SDS011;37569;50.548;8.778;2024-03-08T08:22:05;22.5;;;13.1;;
51491;SDS011;37569;50.548;8.778;2024-03-08T08:27:05;23.4;;;15.3;;
51491;SDS011;37569;50.548;8.778;2024-03-08T08:32:05;22.3;;;15;;
51491;SDS011;37569;50.548;8.778;2024-03-08T08:37:06;21.1;;;14.3;;
51491;SDS011;37569;50.548;8.778;2024-03-08T08:42:06;21.2;;;14.5;;
51491;SDS011;37569;50.548;8.778;2024-03-08T08:47:06;20.2;;;14.2;;
51491;SDS011;37569;50.548;8.778;2024-03-08T08:52:07;21.8;;;14.4;;
51491;SDS011;37569;50.548;8.778;2024-03-08T08:57:07;22.8;;;15;;
51491;SDS011;37569;50.548;8.778;2024-03-08T09:02:07;21.4;;;14.5;;
51491;SDS011;37569;50.548;8.778;2024-03-08T09:07:08;18.1;;;13.7;;
51491;SDS011;37569;50.548;8.778;2024-03-08T09:12:08;21.2;;;14.8;;
51491;SDS011;37569;50.548;8.778;2024-03-08T09:17:09;21.8;;;14.1;;
51491;SDS011;37569;50.548;8.778;2024-03-08T09:22:09;20.4;;;14.7;;
51491;SDS011;37569;50.548;8.778;2024-03-08T09:27:09;20;;;14.5;;
51491;SDS011;37569;50.548;8.778;2024-03-08T09:32:10;20.2;;;14.8;;
51491;SDS011;37569;50.548;8.778;2024-03-08T09:37:10;19.3;;;13.6;;
51491;SDS011;37569;50.548;8.778;2024-03-08T09:42:11;18.9;;;13.7;;
51491;SDS011;37569;50.548;8.778;2024-03-08T09:47:11;20.7;;;14.7;;
51491;SDS011;37569;50.548;8.778;2024-03-08T09:52:11;16.6;;;12.8;;
51491;SDS011;37569;50.548;8.778;2024-03-08T09:57:12;18.6;;;12.2;;
51491;SDS011;37569;50.548;8.778;2024-03-08T10:02:13;15.3;;;11.7;;
51491;SDS011;37569;50.548;8.778;2024-03-08T10:07:12;17.7;;;12.3;;
51491;SDS011;37569;50.548;8.778;2024-03-08T10:12:13;14.7;;;11;;
51491;SDS011;37569;50.548;8.778;2024-03-08T10:17:13;17.8;;;12.2;;
51491;SDS011;37569;50.548;8.778;2024-03-08T10:22:14;16.1;;;11.7;;
51491;SDS011;37569;50.548;8.778;2024-03-08T10:27:16;15.6;;;11.1;;
51491;SDS011;37569;50.548;8.778;2024-03-08T10:32:15;14.1;;;9.2;;
51491;SDS011;37569;50.548;8.778;2024-03-08T10:37:15;13.3;;;9.8;;
51491;SDS011;37569;50.548;8.778;2024-03-08T10:42:16;13.3;;;9.7;;
51491;SDS011;37569;50.548;8.778;2024-03-08T10:47:18;11.6;;;8.5;;
51491;SDS011;37569;50.548;8.778;2024-03-08T10:52:16;14.2;;;9.8;;
51491;SDS011;37569;50.548;8.778;2024-03-08T10:57:17;12.4;;;8.6;;
51491;SDS011;37569;50.548;8.778;2024-03-08T11:02:17;29.7;;;15.9;;
51491;SDS011;37569;50.548;8.778;2024-03-08T11:07:18;13.4;;;9.1;;
51491;SDS011;37569;50.548;8.778;2024-03-08T11:12:19;11.5;;;8.8;;
51491;SDS011;37569;50.548;8.778;2024-03-08T11:17:20;15.1;;;11.6;;
51491;SDS011;37569;50.548;8.778;2024-03-08T11:22:21;13.4;;;9.5;;
51491;SDS011;37569;50.548;8.778;2024-03-08T11:27:20;13.5;;;9.6;;
51491;SDS011;37569;50.548;8.778;2024-03-08T11:32:20;14.3;;;11.1;;
51491;SDS011;37569;50.548;8.778;2024-03-08T11:37:21;12.9;;;9.3;;
51491;SDS011;37569;50.548;8.778;2024-03-08T11:42:21;11;;;8.4;;
51491;SDS011;37569;50.548;8.778;2024-03-08T11:47:22;12;;;8.3;;
51491;SDS011;37569;50.548;8.778;2024-03-08T11:52:22;10.8;;;8.3;;
51491;SDS011;37569;50.548;8.778;2024-03-08T11:57:23;11.2;;;8.5;;
51491;SDS011;37569;50.548;8.778;2024-03-08T12:02:23;10.2;;;7.3;;
51491;SDS011;37569;50.548;8.778;2024-03-08T12:07:23;12;;;8.8;;
51491;SDS011;37569;50.548;8.778;2024-03-08T12:12:24;12.2;;;9.2;;
51491;SDS011;37569;50.548;8.778;2024-03-08T12:17:24;11.6;;;8.3;;
51491;SDS011;37569;50.548;8.778;2024-03-08T12:22:25;11.7;;;8.4;;
51491;SDS011;37569;50.548;8.778;2024-03-08T12:27:25;13;;;9.2;;
51491;SDS011;37569;50.548;8.778;2024-03-08T12:32:26;14;;;9.4;;
51491;SDS011;37569;50.548;8.778;2024-03-08T12:37:27;13.8;;;9.3;;
51491;SDS011;37569;50.548;8.778;2024-03-08T12:42:27;14.1;;;9.4;;
51491;SDS011;37569;50.548;8.778;2024-03-08T12:47:28;12.7;;;9.4;;
51491;SDS011;37569;50.548;8.778;2024-03-08T12:52:28;13.4;;;9.9;;
51491;SDS011;37569;50.548;8.778;2024-03-08T12:57:29;14.7;;;9.8;;
51491;SDS011;37569;50.548;8.778;2024-03-08T13:02:29;14.4;;;9.8;;
51491;SDS011;37569;50.548;8.778;2024-03-08T13:07:30;14.9;;;10.2;;
51491;SDS011;37569;50.548;8.778;2024-03-08T13:12:30;13.5;;;9.7;;
51491;SDS011;37569;50.548;8.778;2024-03-08T13:17:31;14.9;;;10.6;;
51491;SDS011;37569;50.548;8.778;2024-03-08T13:22:31;15.3;;;11;;
51491;SDS011;37569;50.548;8.778;2024-03-08T13:27:32;15.7;;;10.7;;
51491;SDS011;37569;50.548;8.778;2024-03-08T13:32:32;17.4;;;11.2;;
51491;SDS011;37569;50.548;8.778;2024-03-08T13:37:33;15.5;;;10.6;;
51491;SDS011;37569;50.548;8.778;2024-03-08T13:42:33;14.6;;;9.9;;
51491;SDS011;37569;50.548;8.778;2024-03-08T13:47:34;15.5;;;10.7;;
51491;SDS011;37569;50.548;8.778;2024-03-08T13:52:34;15.9;;;11.8;;
51491;SDS011;37569;50.548;8.778;2024-03-08T13:57:35;16.3;;;12;;
51491;SDS011;37569;50.548;8.778;2024-03-08T14:02:35;17.7;;;12.3;;
51491;SDS011;37569;50.548;8.778;2024-03-08T14:07:36;15.9;;;11.8;;
51491;SDS011;37569;50.548;8.778;2024-03-08T14:12:36;16.2;;;11.1;;
51491;SDS011;37569;50.548;8.778;2024-03-08T14:17:37;16.8;;;10.8;;
51491;SDS011;37569;50.548;8.778;2024-03-08T14:22:38;18;;;11.6;;
51491;SDS011;37569;50.548;8.778;2024-03-08T14:27:38;15.2;;;10.4;;
51491;SDS011;37569;50.548;8.778;2024-03-08T14:32:39;17.7;;;11.7;;
51491;SDS011;37569;50.548;8.778;2024-03-08T14:37:39;13.9;;;10.9;;
51491;SDS011;37569;50.548;8.778;2024-03-08T14:42:41;16.2;;;11.6;;
51491;SDS011;37569;50.548;8.778;2024-03-08T14:47:40;17.4;;;12.2;;
51491;SDS011;37569;50.548;8.778;2024-03-08T14:52:41;17.6;;;12.3;;
51491;SDS011;37569;50.548;8.778;2024-03-08T14:57:41;16.7;;;11.8;;
51491;SDS011;37569;50.548;8.778;2024-03-08T15:02:42;17.1;;;11.5;;
51491;SDS011;37569;50.548;8.778;2024-03-08T15:07:42;18.3;;;12;;
51491;SDS011;37569;50.548;8.778;2024-03-08T15:12:44;18.3;;;12.6;;
51491;SDS011;37569;50.548;8.778;2024-03-08T15:17:43;17.5;;;12;;
51491;SDS011;37569;50.548;8.778;2024-03-08T15:22:46;16.9;;;11.8;;
51491;SDS011;37569;50.548;8.778;2024-03-08T15:27:44;15.1;;;11.4;;
51491;SDS011;37569;50.548;8.778;2024-03-08T15:32:45;16.4;;;11.6;;
51491;SDS011;37569;50.548;8.778;2024-03-08T15:37:45;21.2;;;15.3;;
51491;SDS011;37569;50.548;8.778;2024-03-08T15:42:47;15.2;;;10.9;;
51491;SDS011;37569;50.548;8.778;2024-03-08T15:47:46;19.1;;;12;;
51491;SDS011;37569;50.548;8.778;2024-03-08T15:52:47;16.2;;;10.9;;
51491;SDS011;37569;50.548;8.778;2024-03-08T15:57:47;20;;;12.4;;
51491;SDS011;37569;50.548;8.778;2024-03-08T16:02:48;17;;;11.3;;
51491;SDS011;37569;50.548;8.778;2024-03-08T16:07:49;16;;;11.1;;
51491;SDS011;37569;50.548;8.778;2024-03-08T16:12:49;16.2;;;10.8;;
51491;SDS011;37569;50.548;8.778;2024-03-08T16:17:50;17;;;11;;
51491;SDS011;37569;50.548;8.778;2024-03-08T16:22:50;14;;;10.5;;
51491;SDS011;37569;50.548;8.778;2024-03-08T16:27:51;18.5;;;11.7;;
51491;SDS011;37569;50.548;8.778;2024-03-08T16:32:51;13.8;;;9.4;;
51491;SDS011;37569;50.548;8.778;2024-03-08T16:37:52;14.8;;;10.1;;
51491;SDS011;37569;50.548;8.778;2024-03-08T16:42:53;16.2;;;11.1;;
51491;SDS011;37569;50.548;8.778;2024-03-08T16:47:53;14.7;;;10.4;;
51491;SDS011;37569;50.548;8.778;2024-03-08T16:52:54;14.9;;;10.5;;
51491;SDS011;37569;50.548;8.778;2024-03-08T16:57:54;15.8;;;9.9;;
51491;SDS011;37569;50.548;8.778;2024-03-08T17:02:55;16.4;;;9.9;;
51491;SDS011;37569;50.548;8.778;2024-03-08T17:07:55;14.2;;;9.4;;
51491;SDS011;37569;50.548;8.778;2024-03-08T17:12:56;14.9;;;10.6;;
51491;SDS011;37569;50.548;8.778;2024-03-08T17:17:56;15.4;;;9.8;;
51491;SDS011;37569;50.548;8.778;2024-03-08T17:22:57;14.4;;;9.7;;
51491;SDS011;37569;50.548;8.778;2024-03-08T17:27:57;14.7;;;10.3;;
51491;SDS011;37569;50.548;8.778;2024-03-08T17:32:58;18.3;;;11.6;;
51491;SDS011;37569;50.548;8.778;2024-03-08T17:37:58;17.4;;;11.1;;
51491;SDS011;37569;50.548;8.778;2024-03-08T17:42:59;24;;;13.3;;
51491;SDS011;37569;50.548;8.778;2024-03-08T17:47:59;18;;;12.2;;
51491;SDS011;37569;50.548;8.778;2024-03-08T17:52:59;16.6;;;12.4;;
51491;SDS011;37569;50.548;8.778;2024-03-08T17:58:00;20;;;12.4;;
51491;SDS011;37569;50.548;8.778;2024-03-08T18:03:00;21.8;;;13.9;;
51491;SDS011;37569;50.548;8.778;2024-03-08T18:08:01;19.3;;;13;;
51491;SDS011;37569;50.548;8.778;2024-03-08T18:13:01;22.6;;;14;;
51491;SDS011;37569;50.548;8.778;2024-03-08T18:18:01;20.1;;;12.9;;
51491;SDS011;37569;50.548;8.778;2024-03-08T18:23:02;27.5;;;16.3;;
51491;SDS011;37569;50.548;8.778;2024-03-08T18:28:03;26.4;;;16.1;;
51491;SDS011;37569;50.548;8.778;2024-03-08T18:33:03;19.3;;;13.3;;
51491;SDS011;37569;50.548;8.778;2024-03-08T18:38:03;19.5;;;12.8;;
51491;SDS011;37569;50.548;8.778;2024-03-08T18:43:03;20.7;;;13.7;;
51491;SDS011;37569;50.548;8.778;2024-03-08T18:48:04;19.4;;;12.7;;
51491;SDS011;37569;50.548;8.778;2024-03-08T18:53:04;21.1;;;12.7;;
51491;SDS011;37569;50.548;8.778;2024-03-08T18:58:04;18.1;;;12.3;;
51491;SDS011;37569;50.548;8.778;2024-03-08T19:03:05;31.8;;;19.3;;
51491;SDS011;37569;50.548;8.778;2024-03-08T19:08:05;22.8;;;13.7;;
51491;SDS011;37569;50.548;8.778;2024-03-08T19:13:06;47.4;;;22.8;;
51491;SDS011;37569;50.548;8.778;2024-03-08T19:18:06;25.7;;;15.3;;
51491;SDS011;37569;50.548;8.778;2024-03-08T19:23:06;49.8;;;24.2;;
51491;SDS011;37569;50.548;8.778;2024-03-08T19:28:07;25.4;;;13.8;;
51491;SDS011;37569;50.548;8.778;2024-03-08T19:33:07;40.6;;;18.4;;
51491;SDS011;37569;50.548;8.778;2024-03-08T19:38:08;20.9;;;12.1;;
51491;SDS011;37569;50.548;8.778;2024-03-08T19:43:08;17.1;;;10.8;;
51491;SDS011;37569;50.548;8.778;2024-03-08T19:48:08;16.9;;;9.9;;
51491;SDS011;37569;50.548;8.778;2024-03-08T19:53:09;17.5;;;10.2;;
51491;SDS011;37569;50.548;8.778;2024-03-08T19:58:09;15.7;;;10.4;;
51491;SDS011;37569;50.548;8.778;2024-03-08T20:03:09;12.9;;;9.3;;
51491;SDS011;37569;50.548;8.778;2024-03-08T20:08:10;34.7;;;18.3;;
51491;SDS011;37569;50.548;8.778;2024-03-08T20:13:10;15.1;;;9.7;;
51491;SDS011;37569;50.548;8.778;2024-03-08T20:18:11;22.3;;;13.3;;
51491;SDS011;37569;50.548;8.778;2024-03-08T20:23:11;33.5;;;20.3;;
51491;SDS011;37569;50.548;8.778;2024-03-08T20:28:11;38.1;;;21.6;;
51491;SDS011;37569;50.548;8.778;2024-03-08T20:33:12;22.7;;;13.9;;
51491;SDS011;37569;50.548;8.778;2024-03-08T20:38:12;18.3;;;11.4;;
51491;SDS011;37569;50.548;8.778;2024-03-08T20:43:12;16.7;;;11.4;;
51491;SDS011;37569;50.548;8.778;2024-03-08T20:48:13;18;;;10.7;;
51491;SDS011;37569;50.548;8.778;2024-03-08T20:53:13;15.1;;;10.1;;
51491;SDS011;37569;50.548;8.778;2024-03-08T20:58:13;13.9;;;9.3;;
51491;SDS011;37569;50.548;8.778;2024-03-08T21:03:14;14.9;;;10.1;;
51491;SDS011;37569;50.548;8.778;2024-03-08T21:08:14;16.4;;;10.5;;
51491;SDS011;37569;50.548;8.778;2024-03-08T21:13:14;16.4;;;10.7;;
51491;SDS011;37569;50.548;8.778;2024-03-08T21:18:15;19.9;;;12.9;;
51491;SDS011;37569;50.548;8.778;2024-03-08T21:23:15;17.3;;;11.8;;
51491;SDS011;37569;50.548;8.778;2024-03-08T21:28:15;16;;;11;;
51491;SDS011;37569;50.548;8.778;2024-03-08T21:33:16;15.8;;;11;;
51491;SDS011;37569;50.548;8.778;2024-03-08T21:38:16;17;;;11;;
51491;SDS011;37569;50.548;8.778;2024-03-08T21:43:16;16.3;;;10.7;;
51491;SDS011;37569;50.548;8.778;2024-03-08T21:48:16;17;;;11.1;;
51491;SDS011;37569;50.548;8.778;2024-03-08T21:53:17;17.7;;;11.4;;
51491;SDS011;37569;50.548;8.778;2024-03-08T21:58:17;14.4;;;10.5;;
51491;SDS011;37569;50.548;8.778;2024-03-08T22:03:17;16.2;;;11.5;;
51491;SDS011;37569;50.548;8.778;2024-03-08T22:08:18;15.8;;;10.9;;
51491;SDS011;37569;50.548;8.778;2024-03-08T22:13:18;15.4;;;11;;
51491;SDS011;37569;50.548;8.778;2024-03-08T22:18:18;15.1;;;10.7;;
51491;SDS011;37569;50.548;8.778;2024-03-08T22:23:18;22.9;;;15;;
51491;SDS011;37569;50.548;8.778;2024-03-08T22:28:19;20.4;;;13.6;;
51491;SDS011;37569;50.548;8.778;2024-03-08T22:33:19;28.6;;;17.2;;
51491;SDS011;37569;50.548;8.778;2024-03-08T22:38:19;23.2;;;15.1;;
51491;SDS011;37569;50.548;8.778;2024-03-08T22:43:19;18.7;;;12.8;;
51491;SDS011;37569;50.548;8.778;2024-03-08T22:48:20;19;;;12.3;;
51491;SDS011;37569;50.548;8.778;2024-03-08T22:53:20;20;;;13.2;;
51491;SDS011;37569;50.548;8.778;2024-03-08T22:58:20;22.4;;;14;;
51491;SDS011;37569;50.548;8.778;2024-03-08T23:03:21;21.3;;;13.5;;
51491;SDS011;37569;50.548;8.778;2024-03-08T23:08:21;23.8;;;14.8;;
51491;SDS011;37569;50.548;8.778;2024-03-08T23:13:21;22.3;;;12.3;;
51491;SDS011;37569;50.548;8.778;2024-03-08T23:18:21;19.6;;;11.9;;
51491;SDS011;37569;50.548;8.778;2024-03-08T23:23:22;18.2;;;11;;
51491;SDS011;37569;50.548;8.778;2024-03-08T23:28:22;16.6;;;10.6;;
51491;SDS011;37569;50.548;8.778;2024-03-08T23:33:22;16.2;;;11.1;;
51491;SDS011;37569;50.548;8.778;2024-03-08T23:38:22;17;;;10.6;;
51491;SDS011;37569;50.548;8.778;2024-03-08T23:43:23;18.2;;;10.9;;
51491;SDS011;37569;50.548;8.778;2024-03-08T23:48:23;17.3;;;10.4;;
51491;SDS011;37569;50.548;8.778;2024-03-08T23:53:23;16.9;;;10.8;;
51491;SDS011;37569;50.548;8.778;2024-03-08T23:58:24;17.1;;;11;;
